Terminal Aerodrome Forecast
Issued by NWS

Home | Current Version | Previous Version | Text Only | Print | Product List | Glossary On
Versions: 1 2 3 4 5 6 7 8 9 10 11 12 13 14
622
FTUS44 KCRP 031120
TAFLRD
TAF
KLRD 031120Z 0312/0412 36008KT P6SM OVC045
     FM031800 05006KT P6SM BKN060
     FM040600 09005KT P6SM FEW060=

USA.gov is the U.S. government's official web portal to all federal, state and local government web resources and services.